Latest Weather Observations for Longreach

IDQ60801

Issued at 7:32 pm EST Monday 29 May 2017 (issued every 30 minutes, with the page automatically refreshed every 10 minutes)

About weather observations | Map of weather stations | Latest weather observations for QLD | Other Formats
Station Details ID: 036031 Name: LONGREACH AERO Lat: -23.44 Lon: 144.28 Height: 192.2 m
Data from the previous 72 hours. | See also: Recent months at Longreach
Date/Time
EST
Temp
°C
App
Temp
°C
Dew
Point
°C
Rel
Hum
%
Delta-T
°C
Wind Press
QNH
hPa
Press
MSL
hPa
Rain since
9am
mm
Dir  Spd
km/h
Gust
km/h
Spd
kts
Gust
kts
29/07:30pm 21.0 17.6 3.8 32 8.3 SW 11 11 6 6 1020.6 1020.0 0.0
29/07:00pm 21.0 17.6 3.8 32 8.3 SW 11 13 6 7 1020.4 1019.9 0.0
29/06:30pm 21.9 18.9 4.1 31 8.7 SW 9 11 5 6 1019.4 1018.9 0.0
29/06:00pm 22.5 19.8 5.7 33 8.5 SW 9 9 5 5 1019.2 1018.7 0.0
29/05:30pm 23.7 21.1 4.1 28 9.7 SSW 7 11 4 6 1019.1 1018.6 0.0
29/05:00pm 24.2 21.2 4.1 27 10.0 SSW 9 9 5 5 1018.9 1018.4 0.0
29/04:30pm 24.9 22.5 4.1 26 10.4 SSW 6 7 3 4 1018.6 1018.1 0.0
29/04:00pm 25.3 22.6 3.5 24 10.8 SSE 7 11 4 6 1018.9 1018.4 0.0
29/03:30pm 25.4 22.8 4.0 25 10.7 ESE 7 11 4 6 1018.5 1018.0 0.0
29/03:00pm 25.7 23.5 3.6 24 11.0 ESE 4 9 2 5 1018.6 1018.1 0.0
29/02:30pm 25.9 22.7 3.0 22 11.3 S 9 13 5 7 1018.5 1018.0 0.0
29/02:00pm 25.5 22.2 2.2 22 11.3 SE 9 15 5 8 1018.6 1018.1 0.0
29/01:30pm 25.9 22.4 1.5 20 11.7 SE 9 17 5 9 1018.7 1018.2 0.0
29/01:00pm 25.6 21.9 2.4 22 11.3 S 11 19 6 10 1019.4 1018.9 0.0
29/12:30pm 25.1 20.6 2.1 22 11.1 SSE 15 19 8 10 1019.4 1018.9 0.0
29/12:00pm 25.2 20.7 1.9 22 11.2 SE 15 24 8 13 1020.0 1019.5 0.0
29/11:30am 25.5 20.6 2.1 22 11.3 SE 17 26 9 14 1020.4 1019.9 0.0
29/11:00am 24.2 18.9 2.0 23 10.6 SE 19 26 10 14 1020.8 1020.2 0.0
29/10:30am 23.5 16.8 1.7 24 10.3 SE 26 32 14 17 1021.0 1020.4 0.0
29/10:00am 21.9 15.3 1.8 26 9.4 SE 26 33 14 18 1021.3 1020.7 0.0
29/09:30am 20.4 13.7 1.5 28 8.7 SSE 26 35 14 19 1021.4 1020.8 0.0
29/09:00am 19.1 12.7 1.2 30 8.1 SSE 24 35 13 19 1021.5 1020.9 0.0
29/08:30am 17.1 11.7 1.1 34 7.1 S 19 32 10 17 1021.3 1020.7 0.0
29/08:00am 13.2 8.8 0.4 41 5.4 SSW 13 17 7 9 1021.0 1020.4 0.0
29/07:30am 11.2 7.2 0.6 48 4.4 SSW 11 13 6 7 1020.9 1020.3 0.0
29/07:00am 10.8 6.5 0.7 49 4.2 SW 13 15 7 8 1020.3 1019.8 0.0
29/06:30am 10.8 6.8 0.4 48 4.3 SW 11 15 6 8 1020.2 1019.7 0.0
29/06:00am 11.2 7.3 0.9 49 4.3 SW 11 13 6 7 1019.8 1019.3 0.0
29/05:30am 12.1 8.6 1.3 47 4.6 SW 9 13 5 7 1019.5 1019.0 0.0
29/05:00am 12.5 8.2 1.3 46 4.8 SSW 13 15 7 8 1019.1 1018.6 0.0
29/04:30am 12.9 9.0 1.3 45 5.0 SSW 11 15 6 8 1018.9 1018.4 0.0
29/04:00am 12.9 8.9 0.6 43 5.2 SW 11 15 6 8 1019.1 1018.6 0.0
29/03:30am 13.7 9.7 0.5 40 5.6 SSW 11 15 6 8 1018.7 1018.2 0.0
29/03:00am 12.5 9.0 1.3 46 4.8 S 9 11 5 6 1018.9 1018.4 0.0
29/02:30am 14.0 10.4 0.4 39 5.8 SSW 9 13 5 7 1018.8 1018.3 0.0
29/02:00am 14.3 9.9 0.5 39 5.9 SSW 13 15 7 8 1018.9 1018.4 0.0
29/01:30am 14.7 10.3 0.5 38 6.1 SW 13 17 7 9 1018.9 1018.4 0.0
29/01:00am 15.6 11.7 1.3 38 6.3 SSW 11 15 6 8 1019.0 1018.5 0.0
29/12:30am 14.3 10.0 0.8 39 5.8 SW 13 15 7 8 1019.0 1018.5 0.0
29/12:00am 12.7 10.0 0.3 42 5.2 NE 4 9 2 5 1018.6 1018.1 0.0
 
Date/Time
EST
Temp
°C
App
Temp
°C
Dew
Point
°C
Rel
Hum
%
Delta-T
°C
Wind Press
QNH
hPa
Press
MSL
hPa
Rain since
9am
mm
Dir  Spd
km/h
Gust
km/h
Spd
kts
Gust
kts
28/11:30pm 15.1 12.8 0.1 36 6.4 ESE 2 7 1 4 1018.6 1018.1 0.0
28/11:00pm 15.2 12.1 1.3 39 6.1 NE 7 9 4 5 1018.8 1018.3 0.0
28/10:30pm 14.9 11.6 -0.2 35 6.4 NE 7 7 4 4 1018.7 1018.2 0.0
28/10:00pm 15.1 13.1 0.1 36 6.4 CALM 0 0 0 0 1018.8 1018.3 0.0
28/09:30pm 16.8 13.8 1.0 34 7.0 NNW 6 9 3 5 1018.9 1018.4 0.0
28/09:00pm 17.7 15.7 2.5 36 7.0 SW 2 7 1 4 1018.7 1018.2 0.0
28/08:30pm 18.9 16.1 3.2 35 7.4 S 7 7 4 4 1018.5 1018.0 0.0
28/08:00pm 20.5 17.3 3.3 32 8.2 S 9 9 5 5 1018.1 1017.6 0.0
28/07:30pm 21.4 18.1 2.3 28 9.0 SSW 9 11 5 6 1017.7 1017.1 0.0
28/07:00pm 22.1 18.9 3.2 29 9.1 S 9 11 5 6 1017.4 1016.8 0.0
28/06:30pm 23.1 20.0 3.7 28 9.5 SSW 9 13 5 7 1017.0 1016.4 0.0
28/06:00pm 24.9 21.2 2.1 22 11.0 SSW 11 13 6 7 1016.6 1016.0 0.0
28/05:30pm 26.5 21.8 0.6 18 12.3 SSW 15 19 8 10 1016.4 1015.8 0.0
28/05:00pm 27.5 22.7 0.4 17 12.9 S 15 20 8 11 1016.1 1015.5 0.0
28/04:30pm 27.9 23.3 -0.7 15 13.4 SSW 13 20 7 11 1016.1 1015.5 0.0
28/04:00pm 28.2 24.0 1.6 18 13.0 SSW 13 20 7 11 1016.0 1015.4 0.0
28/03:30pm 28.5 23.9 -1.0 14 13.8 SW 13 26 7 14 1016.0 1015.4 0.0
28/03:00pm 28.6 23.0 0.1 15 13.6 SW 19 26 10 14 1016.2 1015.6 0.0
28/02:30pm 28.4 23.5 -0.8 15 13.7 SW 15 24 8 13 1016.4 1015.8 0.0
28/02:00pm 28.7 24.3 0.4 16 13.6 SSW 13 19 7 10 1016.6 1016.0 0.0
28/01:30pm 28.0 22.3 -0.5 15 13.4 SSW 19 30 10 16 1017.0 1016.4 0.0
28/01:00pm 28.1 22.7 -1.1 15 13.6 SSW 17 28 9 15 1017.4 1016.8 0.0
28/12:30pm 27.8 23.0 -0.1 16 13.2 S 15 26 8 14 1017.9 1017.3 0.0
28/12:00pm 26.7 22.7 0.2 17 12.5 SSW 11 17 6 9 1018.4 1017.9 0.0
28/11:30am 26.3 22.5 -0.8 17 12.5 SW 9 11 5 6 1018.9 1018.4 0.0
28/11:00am 25.4 21.4 0.8 20 11.6 S 11 17 6 9 1019.3 1018.8 0.0
28/10:30am 24.2 20.4 -0.6 19 11.3 SSW 9 13 5 7 1019.7 1019.2 0.0
28/10:00am 21.8 18.1 0.2 23 9.8 SSW 9 11 5 6 1019.8 1019.3 0.0
28/09:30am 19.4 15.7 0.0 27 8.6 SW 9 13 5 7 1019.7 1019.2 0.0
28/09:00am 17.1 13.3 -1.0 29 7.7 SW 9 13 5 7 1019.5 1019.0 0.0
28/08:30am 14.7 10.5 -0.6 35 6.4 SSW 11 13 6 7 1019.1 1018.6 0.0
28/08:00am 11.8 7.9 -1.8 38 5.4 SSW 9 19 5 10 1018.8 1018.3 0.0
28/07:30am 11.3 7.0 -1.9 40 5.2 SE 11 13 6 7 1018.2 1017.7 0.0
28/07:00am 8.6 6.1 -1.2 50 3.8 WSW 2 7 1 4 1018.1 1017.6 0.0
28/06:30am 7.8 5.8 -0.3 56 3.2 CALM 0 0 0 0 1018.0 1017.4 0.0
28/06:00am 8.9 5.1 -1.1 49 3.9 S 9 11 5 6 1017.7 1017.1 0.0
28/05:30am 9.8 7.8 -0.4 49 4.1 CALM 0 0 0 0 1017.4 1016.8 0.0
28/05:00am 10.2 8.0 -1.9 43 4.7 CALM 0 0 0 0 1017.3 1016.7 0.0
28/04:30am 9.5 7.0 -1.2 47 4.2 WSW 2 7 1 4 1017.3 1016.7 0.0
28/04:00am 12.9 9.4 -1.4 37 5.8 SW 7 9 4 5 1017.2 1016.6 0.0
28/03:30am 12.2 10.1 -0.5 41 5.2 CALM 0 0 0 0 1017.4 1016.8 0.0
28/03:00am 11.6 9.7 0.3 46 4.7 CALM 0 0 0 0 1017.5 1016.9 0.0
28/02:30am 12.0 10.0 -0.1 43 5.0 CALM 0 0 0 0 1017.7 1017.1 0.0
28/02:00am 11.7 8.9 -0.6 42 5.0 WSW 4 7 2 4 1017.7 1017.1 0.0
28/01:30am 11.9 10.0 0.7 46 4.7 CALM 0 0 0 0 1017.9 1017.3 0.0
28/01:00am 12.7 9.5 0.6 43 5.1 W 7 9 4 5 1017.8 1017.2 0.0
28/12:30am 14.8 11.4 1.6 41 5.8 W 9 13 5 7 1017.6 1017.0 0.0
28/12:00am 14.5 11.0 1.2 40 5.8 W 9 9 5 5 1017.7 1017.1 0.0
 
Date/Time
EST
Temp
°C
App
Temp
°C
Dew
Point
°C
Rel
Hum
%
Delta-T
°C
Wind Press
QNH
hPa
Press
MSL
hPa
Rain since
9am
mm
Dir  Spd
km/h
Gust
km/h
Spd
kts
Gust
kts
27/11:30pm 17.4 14.3 1.6 34 7.1 SW 7 7 4 4 1017.7 1017.1 0.0
27/11:00pm 15.9 13.2 2.7 41 6.0 S 6 9 3 5 1017.9 1017.3 0.0
27/10:30pm 17.1 14.7 2.1 36 6.8 E 4 7 2 4 1017.9 1017.3 0.0
27/10:00pm 20.0 17.0 1.8 29 8.4 SE 7 11 4 6 1017.7 1017.1 0.0
27/09:30pm 21.4 17.4 2.6 29 8.9 WSW 13 17 7 9 1017.5 1016.9 0.0
27/09:00pm 22.5 17.5 1.3 24 9.9 WSW 17 24 9 13 1017.2 1016.6 0.0
27/08:30pm 21.1 18.1 4.3 33 8.2 N 9 11 5 6 1016.9 1016.3 0.0
27/08:00pm 22.2 19.3 4.7 32 8.7 N 9 11 5 6 1016.6 1016.0 0.0
27/07:30pm 20.4 18.3 5.6 38 7.4 N 6 7 3 4 1016.3 1015.7 0.0
27/07:00pm 21.7 18.6 3.5 30 8.8 WNW 9 11 5 6 1015.9 1015.3 0.0
27/06:30pm 23.7 21.4 7.4 35 8.6 WNW 9 11 5 6 1015.6 1015.0 0.0
27/06:00pm 25.2 22.1 5.6 28 10.1 NW 11 13 6 7 1015.3 1014.7 0.0
27/05:30pm 27.7 23.7 5.1 23 11.7 WNW 15 20 8 11 1015.1 1014.5 0.0
27/05:00pm 29.2 24.2 3.8 19 13.0 NNW 19 24 10 13 1014.8 1014.3 0.0
27/04:30pm 29.5 25.5 4.7 20 12.9 NNW 15 24 8 13 1014.6 1014.1 0.0
27/04:00pm 30.1 25.0 4.2 19 13.4 NW 20 28 11 15 1014.6 1014.1 0.0
27/03:30pm 29.5 26.2 6.3 23 12.4 NW 13 20 7 11 1014.7 1014.2 0.0
27/03:00pm 30.0 25.0 4.7 20 13.2 N 20 30 11 16 1014.8 1014.3 0.0
27/02:30pm 30.0 24.6 4.7 20 13.2 N 22 30 12 16 1014.9 1014.4 0.0
27/02:00pm 29.2 24.0 5.4 22 12.5 N 22 35 12 19 1015.5 1014.9 0.0
27/01:36pm 29.8 25.6 5.6 21 12.8 NNW 17 39 9 21 1015.8 1015.2 0.0
27/01:30pm 30.0 26.2 5.7 21 12.9 NNW 15 28 8 15 1015.9 1015.3 0.0
27/01:00pm 29.2 24.5 6.0 23 12.3 N 20 28 11 15 1016.4 1015.8 0.0
27/12:30pm 28.1 23.4 6.2 25 11.6 N 20 33 11 18 1017.0 1016.4 0.0
27/12:00pm 28.2 23.8 7.5 27 11.2 NNE 20 30 11 16 1017.5 1016.9 0.0
27/11:30am 26.6 21.7 7.1 29 10.4 NNE 22 32 12 17 1017.9 1017.3 0.0
27/11:00am 27.0 22.1 6.9 28 10.7 N 22 30 12 16 1018.4 1017.9 0.0
27/10:30am 25.0 20.6 6.7 31 9.6 N 19 28 10 15 1018.9 1018.4 0.0
27/10:00am 23.6 20.1 7.2 35 8.6 N 15 20 8 11 1019.1 1018.6 0.0
27/09:30am 22.5 18.5 6.8 36 8.1 N 17 20 9 11 1019.2 1018.7 0.0
27/09:00am 21.5 18.0 5.3 34 8.1 NE 13 17 7 9 1019.0 1018.5 0.0
27/08:30am 19.6 15.9 4.3 36 7.4 NE 13 15 7 8 1019.0 1018.5 0.0
27/08:00am 17.7 14.7 4.3 41 6.4 NE 9 11 5 6 1018.6 1018.1 0.0
27/07:30am 13.6 11.1 3.7 51 4.5 E 6 9 3 5 1018.5 1018.0 0.0
27/07:00am 12.5 9.9 4.2 57 3.8 ESE 7 9 4 5 1018.2 1017.7 0.0
27/06:30am 12.9 9.4 3.3 52 4.3 E 11 13 6 7 1017.9 1017.3 0.0
27/06:00am 12.9 8.9 3.1 51 4.4 ESE 13 13 7 7 1017.4 1016.8 0.0
27/05:30am 13.1 8.8 3.3 51 4.4 ESE 15 17 8 9 1016.9 1016.3 0.0
27/05:00am 13.4 9.8 3.2 50 4.6 E 11 13 6 7 1016.8 1016.2 0.0
27/04:30am 13.8 9.9 3.2 48 4.8 E 13 17 7 9 1016.7 1016.1 0.0
27/04:00am 13.8 9.5 3.2 48 4.8 ESE 15 17 8 9 1016.7 1016.1 0.0
27/03:30am 14.2 10.3 3.2 47 5.0 ESE 13 13 7 7 1016.7 1016.1 0.0
27/03:00am 14.5 11.1 3.9 49 4.9 SE 11 13 6 7 1016.6 1016.0 0.0
27/02:30am 14.4 11.5 4.8 52 4.5 S 9 11 5 6 1016.7 1016.1 0.0
27/02:00am 15.6 12.2 4.0 46 5.4 SSE 11 11 6 6 1016.8 1016.2 0.0
27/01:30am 16.1 12.7 4.2 45 5.6 S 11 11 6 6 1016.9 1016.3 0.0
27/01:00am 16.5 13.0 3.3 41 6.1 SSW 11 13 6 7 1017.0 1016.4 0.0
27/12:30am 17.6 15.5 5.8 46 5.8 ENE 6 7 3 4 1016.9 1016.3 0.0
27/12:00am 16.7 12.6 4.2 43 5.9 ENE 15 15 8 8 1016.7 1016.1 0.0
 
Date/Time
EST
Temp
°C
App
Temp
°C
Dew
Point
°C
Rel
Hum
%
Delta-T
°C
Wind Press
QNH
hPa
Press
MSL
hPa
Rain since
9am
mm
Dir  Spd
km/h
Gust
km/h
Spd
kts
Gust
kts
26/11:30pm 18.4 13.8 3.6 37 7.0 E 17 19 9 10 1016.7 1016.1 0.0
26/11:00pm 18.3 14.8 3.4 37 7.0 E 11 15 6 8 1017.0 1016.4 0.0
26/10:30pm 18.8 14.8 2.7 34 7.5 ESE 13 15 7 8 1016.9 1016.3 0.0
26/10:00pm 19.0 14.1 2.1 32 7.8 ESE 17 19 9 10 1016.8 1016.2 0.0
26/09:30pm 20.1 14.8 1.7 29 8.5 ESE 19 20 10 11 1016.8 1016.2 0.0
26/09:00pm 21.2 16.2 1.6 27 9.1 ESE 17 19 9 10 1016.7 1016.1 0.0
26/08:30pm 20.5 16.0 2.0 29 8.6 ESE 15 17 8 9 1016.5 1015.9 0.0
26/08:00pm 21.0 17.3 2.6 29 8.7 SE 11 11 6 6 1016.2 1015.6 0.0

Other Formats:

Comma delimited format used in spreadsheet applications
http://www.bom.gov.au/fwo/IDQ60801/IDQ60801.94346.axf

JavaScript Object Notation format (JSON) in row-major order
http://www.bom.gov.au/fwo/IDQ60801/IDQ60801.94346.json